Miami, Florida
Traffic Map
Current Weather Conditions
Miami, Florida
Scattered Clouds
Scattered Clouds
75°
Feels Like: 75°
Wind Chill: 75° Ceiling: Unl
Heat Index: 75° Visibility: 10mi
Dew Point: 72° Wind: 10mph
Humidity: 90% Direction: 120° (ESE)
Pressure: 30in Gusts: 0mph
Raw Report DataKMIA 050953Z 12009KT 10SM FEW015 FEW022 SCT039 24/22 A3000 RMK AO2 SLP160 T02390222
Traffic Incident Summary
Active as of:
Severity:
Category:
InformationThere was an issue retrieving the traffic information for this location. Please try a different location or try again shortly.
Advertisements
Track Severe Weather on mobile